Grayville, Illinois
Current Conditions -  °F | °C
As of 7:35 AM on Friday 24 Oct 2014 (Local Time) from KCUL Reporting Station
Broken Clouds Broken Clouds  
Wind Chill: 51°   Ceiling: 3500
Heat Index: 51°   Visibility: 10mi
Dew Point: 49°   Wind: 3mph
Humidity: 95%   Direction: 170°S
Pressure: 30.11"   Gusts: NA
Location:  38.26°N, 88°W
Report Text: KCUL 241235Z AUTO 17003KT 10SM BKN035 BKN044 11/10 A3011 RMK AO2 T01050097
Loading
Personal Weather Stations






























Interactive Weather Map
Tropical Storm Tracking
New forecast layout! Learn more

10-Day Weather Forecast

Advertisements
Track Severe Weather on mobile